LFBU/ANG METAR and TAF weather

Enter ICAO airport designator
Station Type Date Time Source
LFBU METAR 2019/11/21 03:30 UTC NOAA

LFBU 210330Z AUTO 15008KT 100V180 CAVOK 07/04 Q1004


Station Type Date Time Source
LFBU Decoded METAR 2019/11/21 03:30 UTC NOAA

Station name not available
Nov 20, 2019 - 10:30 PM EST / 2019.11.21 0330 UTC
Wind: from the SSE (150 degrees) at 9 MPH (8 KT) (direction variable):0
Visibility: greater than 7 mile(s):0
Temperature: 44 F (7 C)
Dew Point: 39 F (4 C)
Relative Humidity: 81%
Pressure (altimeter): 29.65 in. Hg (1004 hPa)
ob: LFBU 210330Z AUTO 15008KT 100V180 CAVOK 07/04 Q1004
cycle: 3

Station Type Date Time Source
LFBU TAF 2019/11/20 20:00 UTC NOAA

TAF
AMD LFBU 202058Z 2020/2118 CNL

Example: see airport list